Time;durP1;ratioP1;P1;durP2;ratioP2;P2;SDS_P1;SDS_P2;PMS_P1;PMS_P2;Temp;Humidity;BMP_temperature;BMP_pressure;BME280_temperature;BME280_humidity;BME280_pressure;Samples;Min_cycle;Max_cycle;Signal;HPM_P1;HPM_P2
2023/08/24 00:01:01;;;;;;;5.78;2.80;;;;;;;17.32;100.00;101201.31;4998699;28;20411;-84
2023/08/24 00:03:35;;;;;;;6.00;2.70;;;;;;;17.25;100.00;101189.97;5000150;28;20445;-83
2023/08/24 00:06:09;;;;;;;7.20;2.80;;;;;;;17.25;100.00;101187.19;4997996;28;20435;-83
2023/08/24 00:08:37;;;;;;;7.32;3.08;;;;;;;17.23;100.00;101180.38;4999721;28;20424;-83
2023/08/24 00:11:14;;;;;;;7.68;2.92;;;;;;;17.23;100.00;101186.69;4999903;28;20428;-85
2023/08/24 00:13:49;;;;;;;6.10;3.00;;;;;;;17.23;100.00;101185.88;4995352;28;20964;-85
2023/08/24 00:16:22;;;;;;;9.18;3.20;;;;;;;17.33;100.00;101194.69;4999148;28;20465;-84
2023/08/24 00:18:56;;;;;;;8.30;3.20;;;;;;;17.36;100.00;101187.78;5002721;28;20434;-84
2023/08/24 00:21:29;;;;;;;6.47;3.10;;;;;;;17.32;100.00;101195.03;5001588;28;20475;-83
2023/08/24 00:24:03;;;;;;;5.47;2.83;;;;;;;17.31;100.00;101188.69;4997776;28;20434;-84
2023/08/24 00:26:31;;;;;;;7.55;3.13;;;;;;;17.34;100.00;101193.59;5002956;28;21106;-84
2023/08/24 00:29:04;;;;;;;7.88;3.28;;;;;;;17.34;100.00;101193.59;4999822;28;21258;-84
2023/08/24 00:31:32;;;;;;;7.88;3.60;;;;;;;17.29;100.00;101187.38;5002778;28;20421;-83
2023/08/24 00:34:06;;;;;;;8.98;3.80;;;;;;;17.20;100.00;101194.78;5000510;28;21132;-84
2023/08/24 00:36:40;;;;;;;9.65;4.35;;;;;;;17.20;100.00;101183.78;5033185;28;20980;-84
2023/08/24 00:39:13;;;;;;;10.05;4.43;;;;;;;17.17;100.00;101190.69;4997845;28;20431;-83
2023/08/24 00:41:46;;;;;;;9.80;4.67;;;;;;;17.17;100.00;101176.94;5005923;28;20435;-83
2023/08/24 00:44:20;;;;;;;11.18;4.97;;;;;;;17.08;100.00;101178.81;5006176;28;20430;-82
2023/08/24 00:46:53;;;;;;;12.07;5.30;;;;;;;17.11;100.00;101173.50;5015653;28;20427;-83
2023/08/24 00:49:28;;;;;;;13.37;5.50;;;;;;;17.11;100.00;101173.50;4999522;28;20437;-83
2023/08/24 00:52:02;;;;;;;11.98;5.30;;;;;;;17.05;100.00;101174.75;5007814;28;20464;-83
2023/08/24 00:54:39;;;;;;;9.38;4.80;;;;;;;16.99;100.00;101176.00;5000107;28;20432;-84
2023/08/24 00:57:07;;;;;;;16.23;5.47;;;;;;;16.98;100.00;101188.91;4999060;28;20406;-83
2023/08/24 00:59:36;;;;;;;10.75;4.72;;;;;;;17.08;100.00;101178.81;5000479;28;20800;-84
2023/08/24 01:02:10;;;;;;;11.37;4.97;;;;;;;17.03;100.00;101177.00;4999542;28;20426;-84
2023/08/24 01:04:44;;;;;;;11.25;4.30;;;;;;;17.08;100.00;101184.31;4997005;28;20891;-83
2023/08/24 01:07:13;;;;;;;8.32;4.00;;;;;;;17.05;100.00;101183.00;5004673;28;20453;-84
2023/08/24 01:09:46;;;;;;;8.50;4.55;;;;;;;17.02;100.00;101180.88;5006147;28;20425;-84
2023/08/24 01:12:28;;;;;;;10.65;4.50;;;;;;;16.96;100.00;101174.69;4999190;28;20487;-83
2023/08/24 01:15:08;;;;;;;9.20;3.90;;;;;;;16.97;100.00;101173.56;4998931;28;20467;-84
2023/08/24 01:17:44;;;;;;;8.05;3.78;;;;;;;16.94;100.00;101176.13;4999067;28;20423;-84
2023/08/24 01:20:19;;;;;;;8.15;3.60;;;;;;;16.93;100.00;101188.22;5001784;28;20406;-83
2023/08/24 01:22:56;;;;;;;9.52;3.80;;;;;;;16.94;100.00;101187.13;4997828;28;20425;-84
2023/08/24 01:25:38;;;;;;;7.88;3.90;;;;;;;16.96;100.00;101193.13;4999195;28;20417;-83
2023/08/24 01:28:14;;;;;;;9.27;3.70;;;;;;;16.93;100.00;101191.81;5006214;28;20424;-84
2023/08/24 01:30:48;;;;;;;8.52;3.72;;;;;;;16.90;100.00;101191.59;5003961;28;20785;-84
2023/08/24 01:33:22;;;;;;;8.48;3.55;;;;;;;16.93;100.00;101196.47;5005046;28;20437;-84
2023/08/24 01:35:50;;;;;;;9.95;3.90;;;;;;;16.92;100.00;101197.63;5015246;28;20430;-84
2023/08/24 01:38:24;;;;;;;10.25;3.92;;;;;;;16.90;100.00;101188.84;4996777;28;20923;-84
2023/08/24 01:41:09;;;;;;;7.57;3.88;;;;;;;16.93;100.00;101190.97;4998554;28;20416;-84
2023/08/24 01:43:46;;;;;;;11.98;4.70;;;;;;;16.97;100.00;101198.31;4998993;28;20421;-85
2023/08/24 01:46:22;;;;;;;12.70;4.68;;;;;;;16.92;100.00;101192.94;5026837;28;20431;-84
2023/08/24 01:48:56;;;;;;;10.70;5.00;;;;;;;16.86;100.00;101188.63;4994215;28;20448;-84
2023/08/24 01:51:30;;;;;;;12.13;4.70;;;;;;;16.88;100.00;101182.84;4993316;28;20436;-83
2023/08/24 01:54:03;;;;;;;12.60;4.60;;;;;;;16.90;100.00;101181.41;4998378;28;20443;-85
2023/08/24 01:56:37;;;;;;;9.63;4.82;;;;;;;16.91;100.00;101185.00;4998130;28;20421;-84
2023/08/24 01:59:12;;;;;;;10.82;4.30;;;;;;;16.90;100.00;101189.66;4996106;28;20424;-83
2023/08/24 02:01:45;;;;;;;8.82;4.75;;;;;;;16.84;100.00;101180.69;4998271;28;20422;-83
2023/08/24 02:04:19;;;;;;;11.88;4.75;;;;;;;16.83;100.00;101186.50;4995628;28;20441;-84
2023/08/24 02:06:47;;;;;;;8.55;4.45;;;;;;;16.83;100.00;101189.25;4997738;28;20437;-85
2023/08/24 02:09:15;;;;;;;10.23;4.50;;;;;;;16.83;100.00;101192.84;5000097;28;20432;-84
2023/08/24 02:11:48;;;;;;;12.30;4.65;;;;;;;16.78;100.00;101187.44;4998849;28;20941;-84
2023/08/24 02:14:23;;;;;;;10.00;4.97;;;;;;;16.80;100.00;101185.19;5001178;28;20416;-83
2023/08/24 02:16:51;;;;;;;11.82;5.07;;;;;;;16.79;100.00;101191.81;5030732;28;20431;-85
2023/08/24 02:19:24;;;;;;;9.60;4.80;;;;;;;16.67;100.00;101181.34;4997162;28;20432;-84
2023/08/24 02:21:57;;;;;;;9.60;4.60;;;;;;;16.65;100.00;101175.38;5001009;28;20439;-82
2023/08/24 02:24:30;;;;;;;12.80;5.53;;;;;;;16.58;100.00;101172.22;4994355;28;20902;-83
2023/08/24 02:27:04;;;;;;;11.38;4.97;;;;;;;16.60;100.00;101169.97;4998193;28;20936;-83
2023/08/24 02:29:39;;;;;;;9.80;4.97;;;;;;;16.52;100.00;101176.19;4995974;28;20457;-84
2023/08/24 02:32:13;;;;;;;10.40;5.05;;;;;;;16.56;100.00;101165.38;4997146;28;20410;-84
2023/08/24 02:34:46;;;;;;;10.93;5.32;;;;;;;16.45;100.00;101162.09;4998190;28;20435;-83
2023/08/24 02:37:19;;;;;;;11.77;5.38;;;;;;;16.39;100.00;101166.88;4999999;28;20421;-84
2023/08/24 02:39:48;;;;;;;11.65;5.22;;;;;;;16.44;100.00;101166.75;4995842;28;20430;-82
2023/08/24 02:42:17;;;;;;;11.50;5.32;;;;;;;16.44;100.00;101157.69;5003219;28;20417;-84
2023/08/24 02:44:51;;;;;;;10.77;5.30;;;;;;;16.42;100.00;101165.41;5001298;28;20784;-83
2023/08/24 02:47:24;;;;;;;8.90;5.10;;;;;;;16.38;100.00;101164.41;5016441;28;20424;-84
2023/08/24 02:49:58;;;;;;;9.93;5.10;;;;;;;16.36;100.00;101161.97;5000689;28;20437;-84
2023/08/24 02:52:31;;;;;;;11.68;5.13;;;;;;;16.40;100.00;101164.94;4997366;28;20439;-82
2023/08/24 02:54:59;;;;;;;10.95;5.40;;;;;;;16.39;100.00;101166.03;5032880;28;20428;-82
2023/08/24 02:57:32;;;;;;;9.00;5.00;;;;;;;16.33;100.00;101171.63;5009491;28;20429;-84
2023/08/24 03:00:09;;;;;;;9.80;5.05;;;;;;;16.27;100.00;101158.34;5028507;28;20759;-84
2023/08/24 03:02:42;;;;;;;9.55;5.20;;;;;;;16.14;100.00;101159.97;4999554;28;20433;-84
2023/08/24 03:05:16;;;;;;;9.38;4.80;;;;;;;16.12;100.00;101152.03;5035818;28;20413;-83
2023/08/24 03:07:50;;;;;;;11.45;4.60;;;;;;;16.16;100.00;101155.00;5031827;28;20417;-83
2023/08/24 03:10:23;;;;;;;9.35;4.70;;;;;;;16.15;100.00;101156.09;5033643;28;20445;-83
2023/08/24 03:12:56;;;;;;;9.48;5.13;;;;;;;16.10;100.00;101150.69;5006969;28;20927;-83
2023/08/24 03:15:26;;;;;;;9.95;4.88;;;;;;;16.13;100.00;101150.91;4998487;28;20411;-83
2023/08/24 03:18:00;;;;;;;11.07;4.85;;;;;;;16.17;100.00;101148.34;5006769;28;20425;-83
2023/08/24 03:20:28;;;;;;;9.88;4.95;;;;;;;16.13;100.00;101144.63;5035850;28;20410;-84
2023/08/24 03:23:01;;;;;;;11.05;4.80;;;;;;;16.16;100.00;101155.00;5006406;28;20439;-83
2023/08/24 03:25:37;;;;;;;10.32;4.90;;;;;;;15.97;100.00;101144.09;5002415;28;20437;-84
2023/08/24 03:28:11;;;;;;;10.27;5.55;;;;;;;16.02;100.00;101155.00;5004846;28;20421;-83
2023/08/24 03:30:49;;;;;;;12.07;5.57;;;;;;;16.02;100.00;101144.00;5017332;28;20423;-82
2023/08/24 03:33:23;;;;;;;10.47;5.43;;;;;;;16.04;100.00;101149.19;4998972;28;20965;-83
2023/08/24 03:35:56;;;;;;;13.80;5.70;;;;;;;16.04;100.00;101152.75;4999600;28;21174;-82
2023/08/24 03:38:30;;;;;;;13.00;5.45;;;;;;;16.03;100.00;101151.09;5001075;28;20805;-83
2023/08/24 03:41:03;;;;;;;11.70;5.95;;;;;;;15.97;100.00;101138.63;5000363;28;20424;-82
2023/08/24 03:43:37;;;;;;;11.35;5.82;;;;;;;15.90;100.00;101135.47;5008096;28;20428;-82
2023/08/24 03:46:12;;;;;;;10.73;5.68;;;;;;;15.81;100.00;101138.94;5003089;28;20421;-82
2023/08/24 03:48:42;;;;;;;11.88;5.63;;;;;;;15.79;100.00;101138.41;5001195;28;20431;-83
2023/08/24 03:51:16;;;;;;;11.82;5.88;;;;;;;15.82;100.00;101145.22;4999581;28;20431;-83
2023/08/24 03:53:49;;;;;;;9.27;5.35;;;;;;;15.85;100.00;101141.06;4998637;28;20441;-83
2023/08/24 03:56:22;;;;;;;11.40;5.47;;;;;;;15.80;100.00;101141.97;4998512;28;20450;-83
2023/08/24 03:58:50;;;;;;;8.70;4.85;;;;;;;15.77;100.00;101146.09;5000878;28;20408;-82
2023/08/24 04:01:25;;;;;;;8.77;5.05;;;;;;;15.70;100.00;101148.44;4996332;28;20966;-82
2023/08/24 04:03:58;;;;;;;10.02;5.18;;;;;;;15.68;100.00;101147.13;4998079;28;20418;-82
2023/08/24 04:06:32;;;;;;;10.85;5.20;;;;;;;15.63;100.00;101148.00;4998530;28;20434;-82
2023/08/24 04:09:07;;;;;;;12.75;5.18;;;;;;;15.63;100.00;101140.59;5031927;28;20906;-82
2023/08/24 04:11:40;;;;;;;11.17;5.40;;;;;;;15.59;100.00;101145.06;5006073;28;20422;-82
2023/08/24 04:14:15;;;;;;;10.48;5.70;;;;;;;15.57;100.00;101141.00;5031032;28;20442;-82
2023/08/24 04:16:45;;;;;;;10.38;5.60;;;;;;;15.52;100.00;101147.38;5001153;28;20417;-82
2023/08/24 04:19:13;;;;;;;13.27;6.22;;;;;;;15.57;100.00;101143.75;5000620;28;20807;-82
2023/08/24 04:21:46;;;;;;;10.50;6.28;;;;;;;15.56;100.00;101142.91;5005051;28;20772;-82
2023/08/24 04:24:19;;;;;;;12.20;6.18;;;;;;;15.49;100.00;101139.75;5004360;28;20473;-82
2023/08/24 04:26:47;;;;;;;11.77;6.68;;;;;;;15.54;100.00;101144.34;4997804;28;20430;-82
2023/08/24 04:29:16;;;;;;;12.82;7.07;;;;;;;15.57;100.00;101146.47;5027087;28;20449;-82
2023/08/24 04:31:50;;;;;;;15.67;7.40;;;;;;;15.58;100.00;101142.63;4994443;28;20438;-81
2023/08/24 04:34:21;;;;;;;12.38;7.07;;;;;;;15.58;100.00;101148.13;5002428;28;20472;-82
2023/08/24 04:36:55;;;;;;;12.50;7.10;;;;;;;15.52;100.00;101147.38;5001494;28;20427;-82
2023/08/24 04:39:24;;;;;;;16.08;7.05;;;;;;;15.44;100.00;101140.66;5000047;28;20409;-82
2023/08/24 04:41:57;;;;;;;14.77;7.25;;;;;;;15.41;100.00;101141.28;4998616;28;20435;-82
2023/08/24 04:44:30;;;;;;;14.90;7.38;;;;;;;15.46;100.00;101137.63;5000646;28;20430;-83
2023/08/24 04:47:05;;;;;;;16.65;6.68;;;;;;;15.40;100.00;101130.63;4999235;28;21026;-82
2023/08/24 04:49:33;;;;;;;13.35;6.65;;;;;;;15.41;100.00;101133.06;5029614;28;20429;-82
2023/08/24 04:52:02;;;;;;;14.13;7.88;;;;;;;15.43;100.00;101143.72;4998497;28;20440;-82
2023/08/24 04:54:35;;;;;;;14.68;7.97;;;;;;;15.42;100.00;101144.81;4995975;28;20425;-82
2023/08/24 04:57:04;;;;;;;16.08;7.90;;;;;;;15.45;100.00;101136.81;4999400;28;20412;-80
2023/08/24 04:59:37;;;;;;;15.75;8.02;;;;;;;15.59;100.00;101152.47;4998832;28;21050;-82
2023/08/24 05:02:11;;;;;;;15.70;7.70;;;;;;;15.57;100.00;101152.78;4992323;28;20433;-82
2023/08/24 05:04:44;;;;;;;13.73;8.00;;;;;;;15.69;100.00;101152.28;4995307;28;20432;-82
2023/08/24 05:07:13;;;;;;;15.30;7.85;;;;;;;15.88;100.00;101159.66;5013858;28;20447;-81
2023/08/24 05:09:41;;;;;;;14.23;7.97;;;;;;;16.03;100.00;101167.59;4998373;28;20422;-82
2023/08/24 05:12:14;;;;;;;19.10;7.43;;;;;;;16.21;100.00;101171.34;5001699;28;20428;-82
2023/08/24 05:14:47;;;;;;;16.55;7.68;;;;;;;16.39;100.00;101174.28;5003187;28;20424;-82
2023/08/24 05:17:24;;;;;;;13.68;7.60;;;;;;;16.53;100.00;101166.00;4999570;28;20432;-82
2023/08/24 05:19:57;;;;;;;11.45;6.93;;;;;;;16.52;100.00;101165.22;4999513;28;20429;-81
2023/08/24 05:22:26;;;;;;;10.90;6.65;;;;;;;16.37;100.00;101166.34;5001191;28;20895;-82
2023/08/24 05:24:59;;;;;;;13.63;7.03;;;;;;;16.09;100.00;101168.31;4999344;28;20441;-82
2023/08/24 05:27:32;;;;;;;15.07;7.60;;;;;;;16.04;100.00;101163.72;4998002;28;20445;-83
2023/08/24 05:30:06;;;;;;;12.38;7.40;;;;;;;15.96;100.00;101161.69;5000386;28;20439;-82
2023/08/24 05:32:41;;;;;;;13.97;7.90;;;;;;;15.81;100.00;101166.38;4999954;28;20414;-82
2023/08/24 05:35:14;;;;;;;13.20;7.63;;;;;;;15.90;100.00;101160.19;4999010;28;20908;-82
2023/08/24 05:37:42;;;;;;;14.93;7.45;;;;;;;15.84;100.00;101155.88;4999476;28;20426;-82
2023/08/24 05:40:15;;;;;;;13.33;7.50;;;;;;;15.83;100.00;101163.31;5000150;28;21087;-82
2023/08/24 05:42:48;;;;;;;14.38;7.75;;;;;;;15.84;100.00;101170.44;4998989;28;20430;-82
2023/08/24 05:45:17;;;;;;;16.05;7.70;;;;;;;15.84;100.00;101164.94;5002038;28;20439;-82
2023/08/24 05:47:46;;;;;;;13.43;7.28;;;;;;;15.96;100.00;101173.50;4999449;28;20436;-82
2023/08/24 05:50:14;;;;;;;14.48;7.90;;;;;;;16.12;100.00;101170.44;5000635;28;20430;-82
2023/08/24 05:52:48;;;;;;;13.30;7.63;;;;;;;16.30;100.00;101182.44;4998774;28;20427;-82
2023/08/24 05:55:21;;;;;;;12.48;6.95;;;;;;;16.37;100.00;101182.03;5001075;28;20434;-82
2023/08/24 05:57:49;;;;;;;11.43;5.70;;;;;;;16.46;100.00;101183.75;5006058;28;20774;-84
2023/08/24 06:00:18;;;;;;;10.13;5.90;;;;;;;16.52;100.00;101181.69;5002013;28;20418;-84
2023/08/24 06:02:47;;;;;;;15.30;6.23;;;;;;;16.51;100.00;101182.81;4995348;28;20483;-83
2023/08/24 06:05:21;;;;;;;10.68;5.78;;;;;;;16.55;100.00;101178.31;4997230;28;20432;-89
2023/08/24 06:07:54;;;;;;;9.68;5.45;;;;;;;16.58;100.00;101183.19;5005078;28;20479;-84
2023/08/24 06:10:27;;;;;;;10.48;5.55;;;;;;;16.59;100.00;101182.09;4997824;28;20437;-84
2023/08/24 06:13:02;;;;;;;10.13;5.28;;;;;;;16.60;100.00;101177.41;5015712;28;20432;-84
2023/08/24 06:15:35;;;;;;;8.43;4.77;;;;;;;16.54;100.00;101175.91;4995309;28;20926;-84
2023/08/24 06:18:10;;;;;;;10.35;4.65;;;;;;;16.65;100.00;101175.38;5002252;28;21348;-84
2023/08/24 06:20:38;;;;;;;11.23;5.57;;;;;;;16.74;100.00;101169.16;5031953;28;20430;-85
2023/08/24 06:23:11;;;;;;;10.60;5.30;;;;;;;16.81;100.00;101175.03;5003792;28;20920;-84
2023/08/24 06:25:41;;;;;;;9.77;5.25;;;;;;;16.89;100.00;101177.06;5017623;28;20445;-84
2023/08/24 06:28:14;;;;;;;10.65;5.05;;;;;;;16.94;100.00;101173.38;4998731;28;20796;-85
2023/08/24 06:30:47;;;;;;;10.07;5.00;;;;;;;17.13;100.00;101173.19;5007018;28;20437;-83
2023/08/24 06:33:19;;;;;;;10.07;4.90;;;;;;;17.09;100.00;101172.19;5005109;28;20469;-85
2023/08/24 06:35:52;;;;;;;11.35;4.72;;;;;;;17.19;100.00;101171.94;4999316;28;20434;-83
2023/08/24 06:38:20;;;;;;;8.57;4.10;;;;;;;17.17;100.00;101155.75;4999784;28;20438;-84
2023/08/24 06:40:53;;;;;;;12.90;4.93;;;;;;;17.17;100.00;101158.50;5002789;28;20428;-82
2023/08/24 06:43:27;;;;;;;7.95;4.18;;;;;;;17.19;100.00;101144.44;5028605;28;20438;-85
2023/08/24 06:45:56;;;;;;;6.90;3.87;;;;;;;17.23;100.00;101144.63;5005349;28;20476;-84
2023/08/24 06:48:30;;;;;;;7.35;3.30;;;;;;;17.30;100.00;101145.00;5000810;28;20424;-84
2023/08/24 06:50:58;;;;;;;6.70;3.10;;;;;;;17.40;100.00;101138.41;5000280;28;20886;-84
2023/08/24 06:53:34;;;;;;;6.45;2.70;;;;;;;17.30;100.00;101134.81;4992873;28;20901;-84
2023/08/24 06:56:07;;;;;;;7.90;3.22;;;;;;;17.35;100.00;101136.63;4998777;28;20436;-82
2023/08/24 06:58:40;;;;;;;7.68;3.30;;;;;;;17.54;100.00;101132.81;5000579;28;20430;-83
2023/08/24 07:01:13;;;;;;;8.50;3.88;;;;;;;17.43;100.00;101138.59;4998043;28;20433;-84
2023/08/24 07:03:48;;;;;;;7.05;3.40;;;;;;;17.47;100.00;101136.84;5001871;28;20540;-84
2023/08/24 07:06:16;;;;;;;9.00;3.70;;;;;;;17.65;100.00;101142.44;5030474;28;20996;-84
2023/08/24 07:08:49;;;;;;;7.63;3.58;;;;;;;17.61;100.00;101138.72;4998682;28;20905;-84
2023/08/24 07:11:23;;;;;;;9.07;3.88;;;;;;;17.54;100.00;101141.91;4994068;28;20437;-83
2023/08/24 07:13:56;;;;;;;7.43;3.70;;;;;;;17.77;100.00;101139.91;4989463;28;20447;-84
2023/08/24 07:16:24;;;;;;;6.80;3.33;;;;;;;17.86;100.00;101128.94;4994524;28;20461;-82
2023/08/24 07:18:59;;;;;;;8.15;3.50;;;;;;;17.80;100.00;101119.16;4998556;28;21038;-83
2023/08/24 07:21:27;;;;;;;7.05;3.30;;;;;;;17.66;100.00;101124.78;4997139;28;20418;-85
2023/08/24 07:24:01;;;;;;;7.20;3.30;;;;;;;17.65;100.00;101110.22;4984913;28;20437;-82
2023/08/24 07:26:34;;;;;;;7.80;3.30;;;;;;;17.68;100.00;101108.78;4980566;28;22073;-83
2023/08/24 07:29:08;;;;;;;8.18;2.97;;;;;;;17.84;100.00;101117.41;4979625;28;20924;-82
2023/08/24 07:31:41;;;;;;;8.43;3.60;;;;;;;17.91;100.00;101122.47;4980934;28;20433;-82
2023/08/24 07:34:16;;;;;;;8.40;3.33;;;;;;;17.96;100.00;101117.63;4978804;28;20444;-83
2023/08/24 07:36:49;;;;;;;5.40;3.13;;;;;;;17.95;100.00;101116.03;4989788;28;20449;-83
2023/08/24 07:39:22;;;;;;;7.40;2.67;;;;;;;18.11;100.00;101121.09;4982808;28;20464;-83
2023/08/24 07:41:55;;;;;;;4.30;1.98;;;;;;;18.09;100.00;101118.66;4975528;28;20425;-82
2023/08/24 07:44:29;;;;;;;4.93;2.22;;;;;;;18.09;100.00;101128.84;4981344;28;20437;-84
2023/08/24 07:46:57;;;;;;;7.43;2.00;;;;;;;17.88;100.00;101126.66;4971385;28;20987;-84
2023/08/24 07:49:32;;;;;;;3.97;1.77;;;;;;;17.99;100.00;101129.97;4995752;28;20434;-82
2023/08/24 07:52:05;;;;;;;5.15;1.80;;;;;;;18.39;100.00;101121.63;4983076;28;20445;-83
2023/08/24 07:54:33;;;;;;;4.55;1.83;;;;;;;18.32;100.00;101127.59;5009105;28;20991;-83
2023/08/24 07:57:06;;;;;;;4.82;1.98;;;;;;;18.35;100.00;101117.88;4980875;28;20495;-82
2023/08/24 07:59:40;;;;;;;5.13;1.80;;;;;;;18.33;100.00;101123.72;4975361;28;20432;-84
2023/08/24 08:02:15;;;;;;;8.70;2.85;;;;;;;18.70;100.00;101113.22;4977784;28;20434;-84
2023/08/24 08:04:44;;;;;;;6.07;3.00;;;;;;;18.76;100.00;101104.78;4964334;28;20440;-82
2023/08/24 08:07:13;;;;;;;5.35;2.17;;;;;;;18.68;100.00;101103.66;4976360;28;20440;-83
2023/08/24 08:09:46;;;;;;;5.87;2.10;;;;;;;18.48;100.00;101099.59;4979133;28;20440;-82
2023/08/24 08:12:19;;;;;;;5.47;2.17;;;;;;;18.34;100.00;101103.31;4985162;28;21160;-83
2023/08/24 08:14:52;;;;;;;3.90;1.90;;;;;;;18.37;100.00;101101.88;4976276;28;20433;-84
2023/08/24 08:17:25;;;;;;;4.63;1.90;;;;;;;18.39;100.00;101102.34;4975808;28;20447;-86
2023/08/24 08:19:56;;;;;;;4.85;1.92;;;;;;;18.88;100.00;101096.72;5008683;28;20443;-83
2023/08/24 08:22:25;;;;;;;7.88;2.40;;;;;;;18.70;100.00;101104.16;4973945;28;20762;-82
2023/08/24 08:24:55;;;;;;;5.95;1.90;;;;;;;18.59;100.00;101092.63;4973356;28;20436;-83
2023/08/24 08:27:29;;;;;;;4.63;1.90;;;;;;;18.57;100.00;101102.34;4976696;28;20433;-83
2023/08/24 08:29:57;;;;;;;5.00;1.70;;;;;;;18.62;100.00;101100.25;4977153;28;20428;-84
2023/08/24 08:32:30;;;;;;;5.55;1.90;;;;;;;18.66;100.00;101103.19;4992996;28;20429;-85
2023/08/24 08:35:00;;;;;;;4.82;1.60;;;;;;;18.70;100.00;101099.44;4974642;28;20432;-81
2023/08/24 08:37:34;;;;;;;6.53;1.80;;;;;;;18.97;100.00;101102.19;4974999;28;20440;-83
2023/08/24 08:40:03;;;;;;;6.10;1.70;;;;;;;18.99;100.00;101106.25;5005702;28;21865;-83
2023/08/24 08:42:37;;;;;;;4.63;1.60;;;;;;;18.94;100.00;101100.09;4973673;28;20463;-84
2023/08/24 08:45:11;;;;;;;4.28;1.65;;;;;;;18.84;100.00;101107.53;4974751;28;20436;-84
2023/08/24 08:47:44;;;;;;;5.03;1.65;;;;;;;18.79;100.00;101104.13;4972333;28;20437;-86
2023/08/24 08:50:14;;;;;;;5.70;1.63;;;;;;;18.86;100.00;101112.72;4978611;28;20457;-86
2023/08/24 08:52:47;;;;;;;5.70;1.67;;;;;;;18.91;100.00;101103.53;4977185;28;20432;-85
2023/08/24 08:55:15;;;;;;;4.40;1.60;;;;;;;19.19;100.00;101096.47;4977368;28;20428;-85
2023/08/24 08:57:53;;;;;;;3.53;1.60;;;;;;;19.06;100.00;101102.19;4981521;28;20444;-85
2023/08/24 09:00:22;;;;;;;8.20;1.80;;;;;;;19.03;100.00;101095.38;4979314;28;20437;-84
2023/08/24 09:02:53;;;;;;;5.68;1.73;;;;;;;19.09;100.00;101087.75;4963997;28;20979;-85
2023/08/24 09:05:28;;;;;;;6.65;1.98;;;;;;;19.17;100.00;101089.69;4962065;28;21851;-85
2023/08/24 09:08:03;;;;;;;6.27;1.80;;;;;;;19.09;100.00;101087.75;4964006;28;20437;-83
2023/08/24 09:10:31;;;;;;;3.17;1.50;;;;;;;19.09;100.00;101083.03;4952422;28;20453;-84
2023/08/24 09:13:05;;;;;;;7.38;1.85;;;;;;;19.18;100.00;101083.00;4963022;28;20542;-85
2023/08/24 09:15:38;;;;;;;6.15;1.80;;;;;;;19.28;100.00;101068.03;4969298;28;20505;-84
2023/08/24 09:18:07;;;;;;;5.00;1.70;;;;;;;19.48;100.00;101063.75;4961240;28;20449;-86
2023/08/24 09:20:42;;;;;;;6.80;1.90;;;;;;;19.50;100.00;101065.06;4949187;28;20434;-86
2023/08/24 09:23:19;;;;;;;3.25;1.65;;;;;;;19.46;100.00;101066.84;4958193;28;20434;-86
2023/08/24 09:25:52;;;;;;;4.60;1.80;;;;;;;19.46;100.00;101064.09;4953533;28;21266;-86
2023/08/24 09:28:26;;;;;;;4.18;1.70;;;;;;;19.39;100.00;101063.81;4955344;28;20445;-84
2023/08/24 09:31:01;;;;;;;6.03;1.90;;;;;;;19.59;100.00;101067.75;4952130;28;20433;-86
2023/08/24 09:33:30;;;;;;;4.13;2.07;;;;;;;19.76;100.00;101066.88;4965330;28;20438;-86
2023/08/24 09:36:07;;;;;;;5.07;1.70;;;;;;;19.81;100.00;101063.94;4961021;28;20445;-86
2023/08/24 09:38:47;;;;;;;4.30;1.80;;;;;;;19.85;100.00;101080.66;4960844;28;20438;-86
2023/08/24 09:41:20;;;;;;;7.13;1.70;;;;;;;19.88;100.00;101075.28;4969376;28;20476;-84
2023/08/24 09:43:49;;;;;;;3.65;1.77;;;;;;;19.90;100.00;101072.19;4973173;28;20434;-84
2023/08/24 09:46:20;;;;;;;5.35;2.00;;;;;;;20.19;100.00;101078.81;4966062;28;20434;-85
2023/08/24 09:48:54;;;;;;;4.30;1.75;;;;;;;20.35;100.00;101079.03;4959473;28;20434;-85
2023/08/24 09:51:29;;;;;;;6.03;2.00;;;;;;;20.40;100.00;101081.63;4965978;28;20440;-86
2023/08/24 09:53:59;;;;;;;3.67;1.70;;;;;;;20.28;100.00;101085.09;4958853;28;20436;-87
2023/08/24 09:56:36;;;;;;;5.00;2.07;;;;;;;20.27;100.00;101083.47;4973243;28;20434;-86
2023/08/24 09:59:14;;;;;;;5.30;2.00;;;;;;;20.46;100.00;101077.50;4980941;28;20425;-87
2023/08/24 10:01:43;;;;;;;6.13;2.23;;;;;;;20.49;100.00;101081.53;4958922;28;20418;-84
2023/08/24 10:04:21;;;;;;;5.20;2.00;;;;;;;20.58;100.00;101081.44;4966545;28;20450;-86
2023/08/24 10:07:03;;;;;;;5.80;2.22;;;;;;;20.60;100.00;101073.66;4963898;28;20446;-86
2023/08/24 10:09:36;;;;;;;5.88;2.30;;;;;;;20.55;100.00;101060.84;4962338;28;20449;-86
2023/08/24 10:12:08;;;;;;;7.88;2.00;;;;;;;20.70;100.00;101051.94;4969440;28;20440;-85
2023/08/24 10:14:48;;;;;;;5.43;2.30;;;;;;;20.82;100.00;101042.88;4967255;28;20447;-86
2023/08/24 10:17:23;;;;;;;5.85;2.47;;;;;;;20.80;100.00;101049.88;4969299;28;20994;-86
2023/08/24 10:20:00;;;;;;;8.88;2.28;;;;;;;20.68;100.00;101051.47;4968655;28;20441;-86
2023/08/24 10:22:31;;;;;;;7.60;2.40;;;;;;;20.68;100.00;101045.94;4968460;28;20952;-86
2023/08/24 10:25:00;;;;;;;7.73;2.23;;;;;;;20.81;100.00;101032.97;4958377;28;20436;-85
2023/08/24 10:27:31;;;;;;;7.13;2.40;;;;;;;20.88;100.00;101035.16;4962222;28;20436;-86
2023/08/24 10:30:05;;;;;;;6.93;2.67;;;;;;;20.79;100.00;101032.50;4972997;28;20428;-86
2023/08/24 10:32:34;;;;;;;6.55;2.35;;;;;;;20.80;100.00;101019.47;4965384;28;20434;-88
2023/08/24 10:35:08;;;;;;;7.97;2.80;;;;;;;20.96;100.00;101027.94;4964088;28;20432;-85
2023/08/24 10:37:46;;;;;;;7.27;2.90;;;;;;;21.09;100.00;101024.03;4961340;28;20446;-84
2023/08/24 10:40:15;;;;;;;8.73;2.47;;;;;;;21.19;100.00;101031.09;4962508;28;20508;-85
2023/08/24 10:42:49;;;;;;;9.40;3.08;;;;;;;21.19;100.00;101037.41;4955805;28;20442;-86
2023/08/24 10:45:23;;;;;;;7.13;2.45;;;;;;;21.26;100.00;101033.28;4967847;28;20430;-86
2023/08/24 10:47:57;;;;;;;24.38;7.43;;;;;;;21.41;100.00;101014.03;4960455;28;21036;-86
2023/08/24 10:50:30;;;;;;;6.75;2.50;;;;;;;21.70;100.00;100987.28;4974785;28;20453;-86
2023/08/24 10:53:00;;;;;;;8.60;3.38;;;;;;;21.85;100.00;100971.09;4963222;28;21102;-84
2023/08/24 10:55:29;;;;;;;7.93;2.72;;;;;;;21.67;100.00;100981.66;4965265;28;20425;-84
2023/08/24 10:58:03;;;;;;;6.80;2.40;;;;;;;21.83;100.00;100979.75;4960681;28;20438;-85
2023/08/24 11:00:40;;;;;;;6.90;2.65;;;;;;;21.86;100.00;100975.47;4974217;28;20432;-85
2023/08/24 11:03:09;;;;;;;7.95;3.10;;;;;;;21.91;100.00;100975.25;4967111;28;20665;-86
2023/08/24 11:05:43;;;;;;;12.55;4.10;;;;;;;21.93;100.00;100972.94;4970464;28;20814;-85
2023/08/24 11:08:18;;;;;;;10.10;3.88;;;;;;;22.11;100.00;100978.19;4969280;28;20561;-85
2023/08/24 11:10:47;;;;;;;9.60;3.70;;;;;;;22.25;100.00;100973.84;4958915;28;20487;-86
2023/08/24 11:13:22;;;;;;;10.02;2.63;;;;;;;22.55;100.00;100967.97;4977135;28;20544;-87
2023/08/24 11:15:54;;;;;;;8.70;2.58;;;;;;;22.50;100.00;100972.97;4988282;28;20454;-86
2023/08/24 11:18:28;;;;;;;8.07;3.00;;;;;;;22.46;100.00;100961.78;4984533;28;20440;-87
2023/08/24 11:21:00;;;;;;;6.50;2.60;;;;;;;22.24;100.00;100965.91;4984491;28;20436;-88
2023/08/24 11:23:30;;;;;;;9.23;2.75;;;;;;;22.15;100.00;100968.00;4981685;28;20439;-85
2023/08/24 11:26:04;;;;;;;11.10;3.38;;;;;;;22.25;100.00;100962.75;4977825;28;20459;-88
2023/08/24 11:28:38;;;;;;;10.10;2.80;;;;;;;22.30;100.00;100958.13;4979818;28;20432;-85
2023/08/24 11:31:09;;;;;;;8.90;3.03;;;;;;;22.40;100.00;100955.69;4986730;28;20429;-87
2023/08/24 11:33:43;;;;;;;6.75;2.50;;;;;;;22.22;100.00;100957.94;4984565;28;20447;-88
2023/08/24 11:36:16;;;;;;;8.57;3.03;;;;;;;22.32;100.00;100939.97;4987303;28;20447;-85
2023/08/24 11:38:53;;;;;;;9.00;2.85;;;;;;;22.37;100.00;100933.41;4987481;28;20421;-87